createdAt,value
2019-05-18T00:00:45.629Z,1005.78
2019-05-18T00:01:45.616Z,1005.78
2019-05-18T00:02:45.621Z,1005.77
2019-05-18T00:03:45.590Z,1005.76
2019-05-18T00:04:45.579Z,1005.79
2019-05-18T00:05:45.569Z,1005.79
2019-05-18T00:06:45.557Z,1005.77
2019-05-18T00:07:45.546Z,1005.75
2019-05-18T00:08:45.543Z,1005.73
2019-05-18T00:09:45.522Z,1005.73
2019-05-18T00:10:45.513Z,1005.73
2019-05-18T00:11:45.501Z,1005.76
2019-05-18T00:12:45.490Z,1005.75
2019-05-18T00:13:45.478Z,1005.74
2019-05-18T00:14:45.501Z,1005.75
2019-05-18T00:15:45.462Z,1005.74
2019-05-18T00:16:45.444Z,1005.77
2019-05-18T00:17:45.435Z,1005.73
2019-05-18T00:18:45.422Z,1005.78
2019-05-18T00:19:45.409Z,1005.80
2019-05-18T00:20:45.407Z,1005.76
2019-05-18T00:21:45.387Z,1005.82
2019-05-18T00:22:45.376Z,1005.79
2019-05-18T00:23:45.384Z,1005.80
2019-05-18T00:24:45.354Z,1005.78
2019-05-18T00:25:45.342Z,1005.81
2019-05-18T00:26:45.365Z,1005.81
2019-05-18T00:27:45.320Z,1005.79
2019-05-18T00:28:45.311Z,1005.81
2019-05-18T00:29:45.300Z,1005.79
2019-05-18T00:30:45.287Z,1005.79
2019-05-18T00:31:45.276Z,1005.80
2019-05-18T00:32:45.292Z,1005.79
2019-05-18T00:33:45.260Z,1005.75
2019-05-18T00:34:45.241Z,1005.75
2019-05-18T00:35:45.230Z,1005.78
2019-05-18T00:36:45.218Z,1005.75
2019-05-18T00:37:45.207Z,1005.76
2019-05-18T00:38:45.204Z,1005.75
2019-05-18T00:39:45.246Z,1005.74
2019-05-18T00:40:45.173Z,1005.75
2019-05-18T00:41:45.633Z,1005.76
2019-05-18T00:42:45.151Z,1005.75
2019-05-18T00:43:45.140Z,1005.74
2019-05-18T00:44:45.167Z,1005.73
2019-05-18T00:45:45.117Z,1005.77
2019-05-18T00:46:45.105Z,1005.74
2019-05-18T00:47:45.095Z,1005.78
2019-05-18T00:48:45.083Z,1005.75
2019-05-18T00:49:45.072Z,1005.76
2019-05-18T00:50:45.090Z,1005.76
2019-05-18T00:51:45.050Z,1005.75
2019-05-18T00:52:45.039Z,1005.74
2019-05-18T00:53:45.027Z,1005.78
2019-05-18T00:54:45.018Z,1005.74
2019-05-18T00:55:45.006Z,1005.76
2019-05-18T00:56:45.022Z,1005.77
2019-05-18T00:57:44.982Z,1005.78
2019-05-18T00:58:44.971Z,1005.76
2019-05-18T00:59:44.960Z,1005.76
2019-05-18T01:00:44.949Z,1005.74
2019-05-18T01:01:44.938Z,1005.78
2019-05-18T01:02:44.957Z,1005.79
2019-05-18T01:03:44.914Z,1005.77
2019-05-18T01:04:44.904Z,1005.78
2019-05-18T01:05:44.892Z,1005.73
2019-05-18T01:06:44.883Z,1005.73
2019-05-18T01:07:44.873Z,1005.73
2019-05-18T01:08:44.888Z,1005.74
2019-05-18T01:09:44.847Z,1005.73
2019-05-18T01:10:44.836Z,1005.69
2019-05-18T01:11:44.824Z,1005.69
2019-05-18T01:12:44.813Z,1005.70
2019-05-18T01:13:44.802Z,1005.66
2019-05-18T01:14:44.812Z,1005.67
2019-05-18T01:15:44.783Z,1005.71
2019-05-18T01:16:44.768Z,1005.64
2019-05-18T01:17:56.417Z,1005.68
2019-05-18T01:18:45.744Z,1005.70
2019-05-18T01:19:44.734Z,1005.71
2019-05-18T01:20:44.729Z,1005.74
2019-05-18T01:21:44.711Z,1005.69
2019-05-18T01:22:44.700Z,1005.71
2019-05-18T01:23:44.690Z,1005.71
2019-05-18T01:24:44.677Z,1005.71
2019-05-18T01:25:44.668Z,1005.70
2019-05-18T01:26:44.682Z,1005.70
2019-05-18T01:27:44.669Z,1005.68
2019-05-18T01:28:44.632Z,1005.67
2019-05-18T01:29:44.622Z,1005.68
2019-05-18T01:30:44.612Z,1005.67
2019-05-18T01:31:44.599Z,1005.67
2019-05-18T01:32:44.618Z,1005.66
2019-05-18T01:33:44.578Z,1005.64
2019-05-18T01:34:44.567Z,1005.66
2019-05-18T01:35:44.554Z,1005.66
2019-05-18T01:36:44.547Z,1005.70
2019-05-18T01:37:44.533Z,1005.69
2019-05-18T01:38:44.526Z,1005.72
2019-05-18T01:39:44.509Z,1005.72
2019-05-18T01:40:44.500Z,1005.71
2019-05-18T01:41:44.486Z,1005.72
2019-05-18T01:42:44.475Z,1005.70
2019-05-18T01:43:44.465Z,1005.74
2019-05-18T01:44:44.462Z,1005.76
2019-05-18T01:45:44.442Z,1005.77
2019-05-18T01:46:44.432Z,1005.72
2019-05-18T01:47:44.418Z,1005.74
2019-05-18T01:48:44.407Z,1005.77
2019-05-18T01:49:44.424Z,1005.81
2019-05-18T01:50:44.406Z,1005.81
2019-05-18T01:51:44.373Z,1005.78
2019-05-18T01:52:44.367Z,1005.82
2019-05-18T01:53:44.351Z,1005.72
2019-05-18T01:54:44.340Z,1005.79
2019-05-18T01:55:44.328Z,1005.76
2019-05-18T01:56:44.346Z,1005.76
2019-05-18T01:57:44.309Z,1005.73
2019-05-18T01:58:44.295Z,1005.71
2019-05-18T01:59:44.284Z,1005.71
2019-05-18T02:00:44.271Z,1005.70
2019-05-18T02:01:44.261Z,1005.70
2019-05-18T02:02:44.278Z,1005.70
2019-05-18T02:03:44.239Z,1005.70
2019-05-18T02:04:44.228Z,1005.67
2019-05-18T02:05:44.224Z,1005.66
2019-05-18T02:06:44.204Z,1005.72
2019-05-18T02:07:44.193Z,1005.74
2019-05-18T02:08:44.189Z,1005.72
2019-05-18T02:09:44.171Z,1005.69
2019-05-18T02:10:44.159Z,1005.75
2019-05-18T02:11:44.148Z,1005.76
2019-05-18T02:12:44.136Z,1005.75
2019-05-18T02:13:44.126Z,1005.73
2019-05-18T02:14:44.143Z,1005.75
2019-05-18T02:15:44.104Z,1005.70
2019-05-18T02:16:44.096Z,1005.70
2019-05-18T02:17:44.080Z,1005.75
2019-05-18T02:18:44.073Z,1005.71
2019-05-18T02:19:44.059Z,1005.76
2019-05-18T02:20:44.068Z,1005.76
2019-05-18T02:21:44.036Z,1005.75
2019-05-18T02:22:44.027Z,1005.76
2019-05-18T02:23:44.013Z,1005.77
2019-05-18T02:24:44.009Z,1005.82
2019-05-18T02:25:43.991Z,1005.84
2019-05-18T02:26:43.986Z,1005.82
2019-05-18T02:27:43.970Z,1005.80
2019-05-18T02:28:43.956Z,1005.81
2019-05-18T02:29:43.946Z,1005.84
2019-05-18T02:30:43.934Z,1005.83
2019-05-18T02:31:43.930Z,1005.83
2019-05-18T02:32:43.943Z,1005.82
2019-05-18T02:33:43.901Z,1005.78
2019-05-18T02:34:43.892Z,1005.77
2019-05-18T02:35:43.877Z,1005.72
2019-05-18T02:36:43.866Z,1005.75
2019-05-18T02:37:43.855Z,1005.75
2019-05-18T02:38:43.852Z,1005.72
2019-05-18T02:39:43.832Z,1005.75
2019-05-18T02:40:43.830Z,1005.71
2019-05-18T02:41:43.811Z,1005.71
2019-05-18T02:42:43.801Z,1005.68
2019-05-18T02:43:43.788Z,1005.69
2019-05-18T02:44:43.806Z,1005.73
2019-05-18T02:45:43.770Z,1005.71
2019-05-18T02:46:43.755Z,1005.71
2019-05-18T02:47:43.744Z,1005.70
2019-05-18T02:48:49.197Z,1005.68
2019-05-18T02:49:44.731Z,1005.69
2019-05-18T02:50:43.710Z,1005.68
2019-05-18T02:51:43.698Z,1005.68
2019-05-18T02:52:43.687Z,1005.72
2019-05-18T02:53:43.712Z,1005.71
2019-05-18T02:54:43.665Z,1005.67
2019-05-18T02:55:43.673Z,1005.70
2019-05-18T02:56:43.643Z,1005.70
2019-05-18T02:57:43.630Z,1005.73
2019-05-18T02:58:43.623Z,1005.74
2019-05-18T02:59:43.608Z,1005.68
2019-05-18T03:00:43.596Z,1005.65
2019-05-18T03:01:43.615Z,1005.69
2019-05-18T03:02:43.574Z,1005.68
2019-05-18T03:03:43.563Z,1005.72
2019-05-18T03:04:43.551Z,1005.68
2019-05-18T03:05:43.541Z,1005.73
2019-05-18T03:06:43.529Z,1005.67
2019-05-18T03:07:43.549Z,1005.67
2019-05-18T03:08:43.505Z,1005.69
2019-05-18T03:09:43.495Z,1005.65
2019-05-18T03:10:43.484Z,1005.65
2019-05-18T03:11:43.473Z,1005.70
2019-05-18T03:12:43.460Z,1005.71
2019-05-18T03:13:43.472Z,1005.69
2019-05-18T03:14:43.438Z,1005.72
2019-05-18T03:15:43.426Z,1005.61
2019-05-18T03:16:43.415Z,1005.72
2019-05-18T03:17:43.412Z,1005.72
2019-05-18T03:18:43.393Z,1005.71
2019-05-18T03:19:43.412Z,1005.69
2019-05-18T03:20:43.372Z,1005.67
2019-05-18T03:21:43.360Z,1005.70
2019-05-18T03:22:43.349Z,1005.66
2019-05-18T03:23:43.338Z,1005.70
2019-05-18T03:24:43.327Z,1005.67
2019-05-18T03:25:43.320Z,1005.69
2019-05-18T03:26:43.304Z,1005.69
2019-05-18T03:27:43.292Z,1005.70
2019-05-18T03:28:43.280Z,1005.70
2019-05-18T03:29:43.270Z,1005.72
2019-05-18T03:30:43.259Z,1005.67
2019-05-18T03:31:43.261Z,1005.69
2019-05-18T03:32:43.237Z,1005.69
2019-05-18T03:33:43.232Z,1005.69
2019-05-18T03:34:43.231Z,1005.72
2019-05-18T03:35:43.203Z,1005.70
2019-05-18T03:36:43.195Z,1005.70
2019-05-18T03:37:43.188Z,1005.72
2019-05-18T03:38:43.168Z,1005.70
2019-05-18T03:39:43.160Z,1005.67
2019-05-18T03:40:43.145Z,1005.65
2019-05-18T03:41:43.134Z,1005.64
2019-05-18T03:42:43.125Z,1005.69
2019-05-18T03:43:43.140Z,1005.68
2019-05-18T03:44:43.103Z,1005.69
2019-05-18T03:45:43.089Z,1005.71
2019-05-18T03:46:43.079Z,1005.71
2019-05-18T03:47:43.067Z,1005.70
2019-05-18T03:48:43.056Z,1005.72
2019-05-18T03:49:43.074Z,1005.72
2019-05-18T03:50:43.032Z,1005.73
2019-05-18T03:51:43.021Z,1005.71
2019-05-18T03:52:43.012Z,1005.72
2019-05-18T03:53:43.001Z,1005.70
2019-05-18T03:54:42.992Z,1005.70
2019-05-18T03:55:42.984Z,1005.70
2019-05-18T03:56:42.967Z,1005.69
2019-05-18T03:57:42.966Z,1005.72
2019-05-18T03:58:42.943Z,1005.66
2019-05-18T03:59:42.981Z,1005.64
2019-05-18T04:00:42.923Z,1005.67
2019-05-18T04:01:42.931Z,1005.68
2019-05-18T04:02:42.898Z,1005.62
2019-05-18T04:03:42.891Z,1005.69
2019-05-18T04:04:42.875Z,1005.64
2019-05-18T04:05:42.878Z,1005.64
2019-05-18T04:06:42.857Z,1005.63
2019-05-18T04:07:42.849Z,1005.62
2019-05-18T04:08:42.831Z,1005.58
2019-05-18T04:09:42.821Z,1005.56
2019-05-18T04:10:42.812Z,1005.57
2019-05-18T04:11:42.795Z,1005.58
2019-05-18T04:12:42.785Z,1005.57
2019-05-18T04:13:42.782Z,1005.58
2019-05-18T04:14:42.763Z,1005.57
2019-05-18T04:15:42.751Z,1005.62
2019-05-18T04:16:42.748Z,1005.59
2019-05-18T04:17:42.728Z,1005.58
2019-05-18T04:18:42.718Z,1005.59
2019-05-18T04:19:46.741Z,1005.62
2019-05-18T04:20:42.699Z,1005.58
2019-05-18T04:21:42.685Z,1005.64
2019-05-18T04:22:42.673Z,1005.60
2019-05-18T04:23:42.662Z,1005.58
2019-05-18T04:24:42.654Z,1005.58
2019-05-18T04:25:43.834Z,1005.60
2019-05-18T04:26:42.627Z,1005.56
2019-05-18T04:27:42.615Z,1005.55
2019-05-18T04:28:42.605Z,1005.54
2019-05-18T04:29:42.596Z,1005.53
2019-05-18T04:30:42.581Z,1005.55
2019-05-18T04:31:42.578Z,1005.49
2019-05-18T04:32:42.570Z,1005.57
2019-05-18T04:33:42.548Z,1005.54
2019-05-18T04:34:42.541Z,1005.54
2019-05-18T04:35:42.528Z,1005.57
2019-05-18T04:36:42.517Z,1005.56
2019-05-18T04:37:42.534Z,1005.59
2019-05-18T04:38:42.496Z,1005.58
2019-05-18T04:39:42.481Z,1005.57
2019-05-18T04:40:42.476Z,1005.56
2019-05-18T04:41:42.461Z,1005.55
2019-05-18T04:42:42.449Z,1005.56
2019-05-18T04:43:42.465Z,1005.59
2019-05-18T04:44:42.425Z,1005.56
2019-05-18T04:45:42.415Z,1005.57
2019-05-18T04:46:42.403Z,1005.58
2019-05-18T04:47:42.393Z,1005.59
2019-05-18T04:48:42.380Z,1005.59
2019-05-18T04:49:42.400Z,1005.58
2019-05-18T04:50:42.358Z,1005.58
2019-05-18T04:51:42.348Z,1005.56
2019-05-18T04:52:42.335Z,1005.54
2019-05-18T04:53:42.325Z,1005.58
2019-05-18T04:54:42.313Z,1005.58
2019-05-18T04:55:42.308Z,1005.58
2019-05-18T04:56:43.140Z,1005.56
2019-05-18T04:57:42.281Z,1005.60
2019-05-18T04:58:42.269Z,1005.60
2019-05-18T04:59:42.255Z,1005.61
2019-05-18T05:00:42.252Z,1005.60
2019-05-18T05:01:42.240Z,1005.63
2019-05-18T05:02:42.222Z,1005.63
2019-05-18T05:03:42.211Z,1005.64
2019-05-18T05:04:42.199Z,1005.58
2019-05-18T05:05:42.188Z,1005.56
2019-05-18T05:06:42.181Z,1005.55
2019-05-18T05:07:42.173Z,1005.54
2019-05-18T05:08:42.153Z,1005.48
2019-05-18T05:09:42.143Z,1005.51
2019-05-18T05:10:42.132Z,1005.57
2019-05-18T05:11:42.120Z,1005.54
2019-05-18T05:12:42.110Z,1005.58
2019-05-18T05:13:42.125Z,1005.55
2019-05-18T05:14:42.087Z,1005.56
2019-05-18T05:15:42.075Z,1005.59
2019-05-18T05:16:42.064Z,1005.57
2019-05-18T05:17:42.053Z,1005.56
2019-05-18T05:18:42.042Z,1005.54
2019-05-18T05:19:42.059Z,1005.50
2019-05-18T05:20:42.018Z,1005.47
2019-05-18T05:21:42.010Z,1005.47
2019-05-18T05:22:41.997Z,1005.48
2019-05-18T05:23:41.987Z,1005.42
2019-05-18T05:24:41.973Z,1005.48
2019-05-18T05:25:41.991Z,1005.48
2019-05-18T05:26:41.950Z,1005.44
2019-05-18T05:27:41.939Z,1005.48
2019-05-18T05:28:41.929Z,1005.50
2019-05-18T05:29:41.917Z,1005.49
2019-05-18T05:30:41.908Z,1005.49
2019-05-18T05:31:41.926Z,1005.51
2019-05-18T05:32:41.886Z,1005.56
2019-05-18T05:33:41.875Z,1005.53
2019-05-18T05:34:41.862Z,1005.57
2019-05-18T05:35:41.852Z,1005.56
2019-05-18T05:36:41.842Z,1005.56
2019-05-18T05:37:41.833Z,1005.58
2019-05-18T05:38:41.816Z,1005.59
2019-05-18T05:39:41.805Z,1005.58
2019-05-18T05:40:41.793Z,1005.58
2019-05-18T05:41:41.782Z,1005.61
2019-05-18T05:42:41.770Z,1005.61
2019-05-18T05:43:41.791Z,1005.66
2019-05-18T05:44:41.760Z,1005.65
2019-05-18T05:45:41.737Z,1005.64
2019-05-18T05:46:41.726Z,1005.63
2019-05-18T05:47:41.714Z,1005.62
2019-05-18T05:48:41.702Z,1005.63
2019-05-18T05:49:41.699Z,1005.64
2019-05-18T05:50:41.680Z,1005.66
2019-05-18T05:51:41.670Z,1005.70
2019-05-18T05:52:41.839Z,1005.71
2019-05-18T05:53:41.646Z,1005.68
2019-05-18T05:54:41.635Z,1005.70
2019-05-18T05:55:41.632Z,1005.65
2019-05-18T05:56:41.613Z,1005.64
2019-05-18T05:57:41.603Z,1005.71
2019-05-18T05:58:41.601Z,1005.67
2019-05-18T05:59:41.579Z,1005.68
2019-05-18T06:00:41.569Z,1005.69
2019-05-18T06:01:41.598Z,1005.73
2019-05-18T06:02:41.549Z,1005.72
2019-05-18T06:03:41.535Z,1005.72
2019-05-18T06:04:41.523Z,1005.75
2019-05-18T06:05:41.514Z,1005.71
2019-05-18T06:06:41.500Z,1005.73
2019-05-18T06:07:41.520Z,1005.73
2019-05-18T06:08:41.478Z,1005.78
2019-05-18T06:09:41.468Z,1005.77
2019-05-18T06:10:41.455Z,1005.75
2019-05-18T06:11:41.444Z,1005.74
2019-05-18T06:12:41.432Z,1005.76
2019-05-18T06:13:41.428Z,1005.74
2019-05-18T06:14:41.409Z,1005.75
2019-05-18T06:15:41.398Z,1005.73
2019-05-18T06:16:41.388Z,1005.75
2019-05-18T06:17:41.377Z,1005.73
2019-05-18T06:18:41.370Z,1005.71
2019-05-18T06:19:41.361Z,1005.74
2019-05-18T06:20:50.913Z,1005.73
2019-05-18T06:21:42.337Z,1005.76
2019-05-18T06:22:41.332Z,1005.73
2019-05-18T06:23:41.309Z,1005.77
2019-05-18T06:24:41.297Z,1005.78
2019-05-18T06:25:41.318Z,1005.74
2019-05-18T06:26:41.274Z,1005.79
2019-05-18T06:27:41.262Z,1005.77
2019-05-18T06:28:41.253Z,1005.76
2019-05-18T06:29:41.243Z,1005.75
2019-05-18T06:30:41.231Z,1005.72
2019-05-18T06:31:41.251Z,1005.72
2019-05-18T06:32:41.207Z,1005.70
2019-05-18T06:33:41.197Z,1005.70
2019-05-18T06:34:41.183Z,1005.68
2019-05-18T06:35:41.173Z,1005.66
2019-05-18T06:36:41.178Z,1005.66
2019-05-18T06:37:41.158Z,1005.70
2019-05-18T06:38:41.140Z,1005.70
2019-05-18T06:39:41.129Z,1005.68
2019-05-18T06:40:41.117Z,1005.66
2019-05-18T06:41:41.110Z,1005.69
2019-05-18T06:42:41.094Z,1005.67
2019-05-18T06:43:41.138Z,1005.62
2019-05-18T06:44:41.075Z,1005.67
2019-05-18T06:45:41.061Z,1005.66
2019-05-18T06:46:41.050Z,1005.67
2019-05-18T06:47:41.039Z,1005.66
2019-05-18T06:48:41.026Z,1005.64
2019-05-18T06:49:41.021Z,1005.67
2019-05-18T06:50:41.027Z,1005.64
2019-05-18T06:51:40.996Z,1005.59
2019-05-18T06:52:40.993Z,1005.56
2019-05-18T06:53:40.970Z,1005.60
2019-05-18T06:54:40.960Z,1005.64
2019-05-18T06:55:40.955Z,1005.61
2019-05-18T06:56:40.937Z,1005.64
2019-05-18T06:57:40.927Z,1005.62
2019-05-18T06:58:40.914Z,1005.63
2019-05-18T06:59:40.903Z,1005.66
2019-05-18T07:00:40.892Z,1005.64
2019-05-18T07:01:40.889Z,1005.59
2019-05-18T07:02:40.869Z,1005.59
2019-05-18T07:03:40.859Z,1005.56
2019-05-18T07:04:40.847Z,1005.55
2019-05-18T07:05:40.836Z,1005.57
2019-05-18T07:06:40.824Z,1005.55
2019-05-18T07:07:40.821Z,1005.58
2019-05-18T07:08:40.802Z,1005.60
2019-05-18T07:09:40.793Z,1005.59
2019-05-18T07:10:40.781Z,1005.62
2019-05-18T07:11:40.774Z,1005.62
2019-05-18T07:12:40.757Z,1005.64
2019-05-18T07:13:40.755Z,1005.70
2019-05-18T07:14:40.734Z,1005.65
2019-05-18T07:15:40.723Z,1005.57
2019-05-18T07:16:40.714Z,1005.59
2019-05-18T07:17:40.701Z,1005.52
2019-05-18T07:18:40.690Z,1005.53
2019-05-18T07:19:40.685Z,1005.51
2019-05-18T07:20:40.667Z,1005.50
2019-05-18T07:21:40.655Z,1005.51
2019-05-18T07:22:40.645Z,1005.52
2019-05-18T07:23:43.757Z,1005.51
2019-05-18T07:24:40.623Z,1005.53
2019-05-18T07:25:40.619Z,1005.52
2019-05-18T07:26:40.617Z,1005.50
2019-05-18T07:27:40.588Z,1005.55
2019-05-18T07:28:40.576Z,1005.49
2019-05-18T07:29:40.566Z,1005.51
2019-05-18T07:30:40.555Z,1005.50
2019-05-18T07:31:40.573Z,1005.48
2019-05-18T07:32:40.531Z,1005.44
2019-05-18T07:33:40.522Z,1005.48
2019-05-18T07:34:40.510Z,1005.46
2019-05-18T07:35:40.505Z,1005.44
2019-05-18T07:36:40.491Z,1005.45
2019-05-18T07:37:40.509Z,1005.41
2019-05-18T07:38:40.465Z,1005.41
2019-05-18T07:39:40.453Z,1005.46
2019-05-18T07:40:40.468Z,1005.46
2019-05-18T07:41:46.951Z,1005.46
2019-05-18T07:42:41.450Z,1005.43
2019-05-18T07:43:40.408Z,1005.42
2019-05-18T07:44:40.416Z,1005.41
2019-05-18T07:45:40.386Z,1005.40
2019-05-18T07:46:40.399Z,1005.42
2019-05-18T07:47:40.363Z,1005.36
2019-05-18T07:48:40.359Z,1005.41
2019-05-18T07:49:40.344Z,1005.38
2019-05-18T07:50:40.328Z,1005.42
2019-05-18T07:51:40.317Z,1005.39
2019-05-18T07:52:40.306Z,1005.40
2019-05-18T07:53:40.295Z,1005.37
2019-05-18T07:54:40.310Z,1005.38
2019-05-18T07:55:40.272Z,1005.37
2019-05-18T07:56:40.272Z,1005.34
2019-05-18T07:57:40.253Z,1005.36
2019-05-18T07:58:40.238Z,1005.33
2019-05-18T07:59:40.227Z,1005.33
2019-05-18T08:00:40.225Z,1005.34
2019-05-18T08:01:40.205Z,1005.30
2019-05-18T08:02:40.194Z,1005.28
2019-05-18T08:03:40.182Z,1005.27
2019-05-18T08:04:40.170Z,1005.25
2019-05-18T08:05:40.160Z,1005.20
2019-05-18T08:06:40.175Z,1005.19
2019-05-18T08:07:40.138Z,1005.13
2019-05-18T08:08:40.128Z,1005.19
2019-05-18T08:09:40.115Z,1005.12
2019-05-18T08:10:43.305Z,1005.13
2019-05-18T08:11:40.094Z,1005.14
2019-05-18T08:12:40.156Z,1005.16
2019-05-18T08:13:40.069Z,1005.14
2019-05-18T08:14:40.057Z,1005.11
2019-05-18T08:15:40.099Z,1005.15
2019-05-18T08:16:40.037Z,1005.15
2019-05-18T08:17:40.027Z,1005.11
2019-05-18T08:18:40.047Z,1005.15
2019-05-18T08:19:40.012Z,1005.15
2019-05-18T08:20:39.991Z,1005.13
2019-05-18T08:21:52.142Z,1005.14
2019-05-18T08:22:40.966Z,1005.17
2019-05-18T08:23:39.959Z,1005.18
2019-05-18T08:24:39.952Z,1005.21
2019-05-18T08:25:39.935Z,1005.18
2019-05-18T08:26:39.923Z,1005.16
2019-05-18T08:27:39.918Z,1005.16
2019-05-18T08:28:39.904Z,1005.14
2019-05-18T08:29:39.889Z,1005.10
2019-05-18T08:30:39.887Z,1005.12
2019-05-18T08:31:39.866Z,1005.11
2019-05-18T08:32:39.856Z,1005.09
2019-05-18T08:33:39.844Z,1005.02
2019-05-18T08:34:39.833Z,1004.96
2019-05-18T08:35:39.822Z,1004.98
2019-05-18T08:36:39.838Z,1005.00
2019-05-18T08:37:39.802Z,1004.96
2019-05-18T08:38:39.789Z,1004.96
2019-05-18T08:39:39.781Z,1004.94
2019-05-18T08:40:39.765Z,1004.96
2019-05-18T08:41:39.764Z,1004.91
2019-05-18T08:42:39.773Z,1004.85
2019-05-18T08:43:39.738Z,1004.87
2019-05-18T08:44:39.720Z,1004.85
2019-05-18T08:45:39.710Z,1004.87
2019-05-18T08:46:39.699Z,1004.84
2019-05-18T08:47:39.686Z,1004.82
2019-05-18T08:48:39.683Z,1004.77
2019-05-18T08:49:39.664Z,1004.78
2019-05-18T08:50:39.654Z,1004.79
2019-05-18T08:51:39.641Z,1004.75
2019-05-18T08:52:39.629Z,1004.79
2019-05-18T08:53:39.626Z,1004.77
2019-05-18T08:54:39.688Z,1004.80
2019-05-18T08:55:39.596Z,1004.75
2019-05-18T08:56:39.585Z,1004.76
2019-05-18T08:57:39.579Z,1004.76
2019-05-18T08:58:39.562Z,1004.82
2019-05-18T08:59:40.075Z,1004.77
2019-05-18T09:00:39.569Z,1004.75
2019-05-18T09:01:39.531Z,1004.74
2019-05-18T09:02:39.525Z,1004.77
2019-05-18T09:03:39.506Z,1004.75
2019-05-18T09:04:39.499Z,1004.71
2019-05-18T09:05:39.484Z,1004.79
2019-05-18T09:06:39.480Z,1004.77
2019-05-18T09:07:39.461Z,1004.74
2019-05-18T09:08:39.450Z,1004.68
2019-05-18T09:09:39.439Z,1004.70
2019-05-18T09:10:39.428Z,1004.68
2019-05-18T09:11:39.416Z,1004.66
2019-05-18T09:12:39.439Z,1004.64
2019-05-18T09:13:39.397Z,1004.58
2019-05-18T09:14:39.382Z,1004.60
2019-05-18T09:15:39.371Z,1004.58
2019-05-18T09:16:39.364Z,1004.59
2019-05-18T09:17:39.349Z,1004.61
2019-05-18T09:18:39.344Z,1004.57
2019-05-18T09:19:39.327Z,1004.54
2019-05-18T09:20:39.315Z,1004.53
2019-05-18T09:21:39.306Z,1004.54
2019-05-18T09:22:39.292Z,1004.52
2019-05-18T09:23:39.282Z,1004.57
2019-05-18T09:24:39.277Z,1004.55
2019-05-18T09:25:39.260Z,1004.57
2019-05-18T09:26:39.248Z,1004.50
2019-05-18T09:27:39.236Z,1004.52
2019-05-18T09:28:39.225Z,1004.54
2019-05-18T09:29:39.225Z,1004.46
2019-05-18T09:30:41.245Z,1004.48
2019-05-18T09:31:39.202Z,1004.50
2019-05-18T09:32:39.184Z,1004.44
2019-05-18T09:33:39.170Z,1004.44
2019-05-18T09:34:39.158Z,1004.42
2019-05-18T09:35:39.146Z,1004.42
2019-05-18T09:36:39.157Z,1004.46
2019-05-18T09:37:39.124Z,1004.39
2019-05-18T09:38:39.116Z,1004.41
2019-05-18T09:39:39.101Z,1004.42
2019-05-18T09:40:39.091Z,1004.40
2019-05-18T09:41:39.078Z,1004.33
2019-05-18T09:42:39.080Z,1004.35
2019-05-18T09:43:39.056Z,1004.32
2019-05-18T09:44:39.045Z,1004.36
2019-05-18T09:45:39.034Z,1004.35
2019-05-18T09:46:39.027Z,1004.30
2019-05-18T09:47:39.011Z,1004.30
2019-05-18T09:48:39.027Z,1004.25
2019-05-18T09:49:38.991Z,1004.23
2019-05-18T09:50:38.978Z,1004.20
2019-05-18T09:51:38.966Z,1004.23
2019-05-18T09:52:46.611Z,1004.25
2019-05-18T09:53:50.716Z,1004.23
2019-05-18T09:54:39.931Z,1004.21
2019-05-18T09:55:38.922Z,1004.25
2019-05-18T09:56:38.909Z,1004.29
2019-05-18T09:57:38.899Z,1004.20
2019-05-18T09:58:38.891Z,1004.20
2019-05-18T09:59:38.882Z,1004.23
2019-05-18T10:00:39.280Z,1004.21
2019-05-18T10:01:38.854Z,1004.19
2019-05-18T10:02:38.850Z,1004.18
2019-05-18T10:03:38.830Z,1004.19
2019-05-18T10:04:38.819Z,1004.24
2019-05-18T10:05:38.813Z,1004.15
2019-05-18T10:06:38.795Z,1004.21
2019-05-18T10:07:38.786Z,1004.14
2019-05-18T10:08:38.777Z,1004.15
2019-05-18T10:09:39.762Z,1004.10
2019-05-18T10:10:38.752Z,1004.10
2019-05-18T10:11:39.018Z,1004.07
2019-05-18T10:12:38.729Z,1004.06
2019-05-18T10:13:38.717Z,1004.06
2019-05-18T10:14:38.706Z,1004.09
2019-05-18T10:15:38.695Z,1004.03
2019-05-18T10:16:38.688Z,1004.00
2019-05-18T10:17:38.718Z,1003.99
2019-05-18T10:18:38.662Z,1004.08
2019-05-18T10:19:38.651Z,1004.08
2019-05-18T10:20:38.644Z,1004.05
2019-05-18T10:21:38.628Z,1004.09
2019-05-18T10:22:53.384Z,1004.01
2019-05-18T10:23:40.507Z,1004.03
2019-05-18T10:24:38.594Z,1003.98
2019-05-18T10:25:38.582Z,1004.03
2019-05-18T10:26:38.590Z,1004.04
2019-05-18T10:27:38.560Z,1004.09
2019-05-18T10:28:38.550Z,1004.05
2019-05-18T10:29:38.565Z,1004.05
2019-05-18T10:30:38.540Z,1004.07
2019-05-18T10:31:38.515Z,1003.96
2019-05-18T10:32:38.506Z,1003.91
2019-05-18T10:33:38.493Z,1003.88
2019-05-18T10:34:38.484Z,1003.99
2019-05-18T10:35:38.477Z,1003.91
2019-05-18T10:36:38.459Z,1003.83
2019-05-18T10:37:38.448Z,1003.84
2019-05-18T10:38:38.436Z,1003.86
2019-05-18T10:39:38.895Z,1003.90
2019-05-18T10:40:38.413Z,1003.80
2019-05-18T10:41:38.409Z,1003.82
2019-05-18T10:42:38.391Z,1003.78
2019-05-18T10:43:38.381Z,1003.75
2019-05-18T10:44:38.367Z,1003.71
2019-05-18T10:45:38.358Z,1003.69
2019-05-18T10:46:38.346Z,1003.71
2019-05-18T10:47:38.367Z,1003.67
2019-05-18T10:48:38.323Z,1003.72
2019-05-18T10:49:38.314Z,1003.77
2019-05-18T10:50:38.300Z,1003.67
2019-05-18T10:51:38.290Z,1003.71
2019-05-18T10:52:38.277Z,1003.69
2019-05-18T10:53:38.274Z,1003.60
2019-05-18T10:54:38.256Z,1003.64
2019-05-18T10:55:38.245Z,1003.66
2019-05-18T10:56:38.233Z,1003.66
2019-05-18T10:57:38.221Z,1003.61
2019-05-18T10:58:38.211Z,1003.56
2019-05-18T10:59:38.208Z,1003.64
2019-05-18T11:00:38.187Z,1003.64
2019-05-18T11:01:38.178Z,1003.59
2019-05-18T11:02:38.169Z,1003.62
2019-05-18T11:03:38.157Z,1003.58
2019-05-18T11:04:38.144Z,1003.62
2019-05-18T11:05:38.140Z,1003.54
2019-05-18T11:06:38.121Z,1003.48
2019-05-18T11:07:38.118Z,1003.57
2019-05-18T11:08:38.528Z,1003.51
2019-05-18T11:09:38.088Z,1003.49
2019-05-18T11:10:38.076Z,1003.49
2019-05-18T11:11:38.073Z,1003.49
2019-05-18T11:12:38.056Z,1003.46
2019-05-18T11:13:38.046Z,1003.43
2019-05-18T11:14:38.030Z,1003.42
2019-05-18T11:15:38.019Z,1003.44
2019-05-18T11:16:38.008Z,1003.46
2019-05-18T11:17:38.007Z,1003.47
2019-05-18T11:18:37.986Z,1003.49
2019-05-18T11:19:37.975Z,1003.47
2019-05-18T11:20:37.968Z,1003.48
2019-05-18T11:21:37.952Z,1003.51
2019-05-18T11:22:37.940Z,1003.46
2019-05-18T11:23:43.654Z,1003.46
2019-05-18T11:24:38.917Z,1003.45
2019-05-18T11:25:37.907Z,1003.43
2019-05-18T11:26:37.900Z,1003.42
2019-05-18T11:27:37.883Z,1003.43
2019-05-18T11:28:37.876Z,1003.40
2019-05-18T11:29:37.874Z,1003.42
2019-05-18T11:30:37.850Z,1003.49
2019-05-18T11:31:37.844Z,1003.50
2019-05-18T11:32:37.828Z,1003.40
2019-05-18T11:33:37.820Z,1003.47
2019-05-18T11:34:37.806Z,1003.48
2019-05-18T11:35:37.803Z,1003.47
2019-05-18T11:36:37.783Z,1003.44
2019-05-18T11:37:37.771Z,1003.40
2019-05-18T11:38:37.762Z,1003.46
2019-05-18T11:39:37.750Z,1003.45
2019-05-18T11:40:37.742Z,1003.45
2019-05-18T11:41:37.734Z,1003.44
2019-05-18T11:42:37.725Z,1003.38
2019-05-18T11:43:37.708Z,1003.42
2019-05-18T11:44:37.693Z,1003.42
2019-05-18T11:45:37.681Z,1003.45
2019-05-18T11:46:37.675Z,1003.44
2019-05-18T11:47:37.691Z,1003.46
2019-05-18T11:48:37.661Z,1003.42
2019-05-18T11:49:37.637Z,1003.33
2019-05-18T11:50:37.629Z,1003.36
2019-05-18T11:51:37.621Z,1003.30
2019-05-18T11:52:37.603Z,1003.37
2019-05-18T11:53:37.597Z,1003.36
2019-05-18T11:54:37.590Z,1003.40
2019-05-18T11:55:37.569Z,1003.36
2019-05-18T11:56:37.559Z,1003.36
2019-05-18T11:57:37.547Z,1003.38
2019-05-18T11:58:37.535Z,1003.32
2019-05-18T11:59:37.532Z,1003.34
2019-05-18T12:00:37.554Z,1003.36
2019-05-18T12:01:37.503Z,1003.39
2019-05-18T12:02:37.493Z,1003.35
2019-05-18T12:03:37.481Z,1003.33
2019-05-18T12:04:37.469Z,1003.30
2019-05-18T12:05:37.479Z,1003.28